Time;durP1;ratioP1;P1;durP2;ratioP2;P2;SDS_P1;SDS_P2;PMS_P1;PMS_P2;Temp;Humidity;BMP_temperature;BMP_pressure;BME280_temperature;BME280_humidity;BME280_pressure;Samples;Min_cycle;Max_cycle;Signal;HPM_P1;HPM_P2
2023/12/12 00:01:45;;;;;;;4.72;4.43;;;;;;;8.09;100.00;100010.78;6065871;23;20116;-75
2023/12/12 00:04:16;;;;;;;4.22;4.07;;;;;;;7.54;100.00;99902.22;6033584;23;20023;-73
2023/12/12 00:06:49;;;;;;;4.00;3.80;;;;;;;8.19;100.00;100017.19;6078457;23;20213;-73
2023/12/12 00:09:24;;;;;;;4.35;4.15;;;;;;;7.72;100.00;99963.91;6055437;23;20038;-77
2023/12/12 00:11:52;;;;;;;4.78;4.50;;;;;;;7.33;100.00;99935.47;6083566;23;20516;-74
2023/12/12 00:14:28;;;;;;;9.88;3.97;;;;;;;7.58;100.00;99966.41;6038717;23;20038;-75
2023/12/12 00:16:58;;;;;;;4.55;4.28;;;;;;;8.12;100.00;100061.13;6071737;23;20425;-73
2023/12/12 00:19:24;;;;;;;9.05;6.65;;;;;;;7.61;100.00;99983.66;6053948;23;20053;-74
2023/12/12 00:21:51;;;;;;;7.40;5.60;;;;;;;7.33;100.00;99962.41;6057370;23;20474;-73
2023/12/12 00:24:17;;;;;;;4.20;4.00;;;;;;;7.11;100.00;99941.78;6050940;23;20026;-74
2023/12/12 00:26:43;;;;;;;5.07;4.05;;;;;;;7.90;100.00;100095.34;6077463;23;20025;-73
2023/12/12 00:29:10;;;;;;;10.90;4.32;;;;;;;7.89;100.00;100098.88;6050124;23;20185;-73
2023/12/12 00:31:36;;;;;;;6.85;4.15;;;;;;;7.88;100.00;100105.03;6078861;23;20145;-73
2023/12/12 00:34:03;;;;;;;9.27;5.28;;;;;;;7.53;100.00;100071.06;6030831;23;20389;-73
2023/12/12 00:36:30;;;;;;;4.38;4.07;;;;;;;7.09;100.00;100008.84;6080218;23;20150;-73
2023/12/12 00:38:56;;;;;;;4.72;4.43;;;;;;;7.26;100.00;100043.72;6049584;23;20092;-74
2023/12/12 00:41:33;;;;;;;5.35;5.13;;;;;;;7.54;100.00;100104.09;6074827;23;20050;-73
2023/12/12 00:43:59;;;;;;;5.80;4.22;;;;;;;7.69;100.00;100146.88;6029778;23;20057;-72
2023/12/12 00:46:26;;;;;;;4.70;4.03;;;;;;;7.83;100.00;100146.19;6084044;23;20006;-74
2023/12/12 00:48:52;;;;;;;4.95;4.25;;;;;;;7.28;100.00;100047.09;6052290;23;20339;-73
2023/12/12 00:51:21;;;;;;;6.30;5.90;;;;;;;7.50;100.00;100093.88;6064742;23;20026;-73
2023/12/12 00:53:48;;;;;;;5.53;4.13;;;;;;;7.92;100.00;100143.13;6030251;23;20018;-73
2023/12/12 00:56:18;;;;;;;4.15;3.85;;;;;;;7.77;100.00;100116.00;6067604;23;20590;-74
2023/12/12 00:58:44;;;;;;;5.93;4.43;;;;;;;7.85;100.00;100122.63;6035821;23;20045;-74
2023/12/12 01:01:13;;;;;;;5.65;5.05;;;;;;;7.51;100.00;100077.28;6074272;23;20077;-73
2023/12/12 01:03:40;;;;;;;4.45;4.10;;;;;;;7.75;100.00;100117.00;6052558;23;20436;-74
2023/12/12 01:06:08;;;;;;;4.10;3.90;;;;;;;7.68;100.00;100105.19;6052985;23;20096;-73
2023/12/12 01:08:35;;;;;;;3.70;3.60;;;;;;;7.72;100.00;100111.94;6051348;23;20280;-72
2023/12/12 01:11:01;;;;;;;4.47;4.28;;;;;;;7.69;100.00;100109.47;6068867;23;20050;-73
2023/12/12 01:13:28;;;;;;;5.72;5.45;;;;;;;7.65;100.00;100110.53;6049067;23;20018;-74
2023/12/12 01:15:54;;;;;;;4.13;3.92;;;;;;;7.13;100.00;100041.69;6077247;23;20026;-74
2023/12/12 01:18:21;;;;;;;5.25;4.60;;;;;;;7.39;100.00;100097.00;6046676;23;20397;-73
2023/12/12 01:20:47;;;;;;;5.25;4.95;;;;;;;7.39;100.00;100116.13;6080796;23;20105;-75
2023/12/12 01:23:14;;;;;;;4.70;4.50;;;;;;;7.22;100.00;100091.75;6052639;23;20029;-74
2023/12/12 01:25:40;;;;;;;4.53;4.13;;;;;;;7.23;100.00;100106.50;6077617;23;20414;-75
2023/12/12 01:28:07;;;;;;;4.10;3.80;;;;;;;7.27;100.00;100131.53;6051870;23;20042;-74
2023/12/12 01:30:33;;;;;;;5.07;3.90;;;;;;;5.87;100.00;99926.78;6081123;23;20034;-72
2023/12/12 01:33:03;;;;;;;4.55;4.25;;;;;;;7.26;100.00;100145.50;6047518;23;20316;-73
2023/12/12 01:35:30;;;;;;;6.15;5.63;;;;;;;7.24;100.00;100152.56;6081286;23;20022;-73
2023/12/12 01:37:56;;;;;;;5.13;4.65;;;;;;;7.24;100.00;100153.41;6049210;23;20093;-74
2023/12/12 01:40:33;;;;;;;3.85;3.65;;;;;;;6.92;100.00;100113.16;6083970;23;20033;-75
2023/12/12 01:43:06;;;;;;;8.50;4.53;;;;;;;7.27;100.00;100179.34;6039345;23;20191;-75
2023/12/12 01:45:42;;;;;;;4.05;3.85;;;;;;;5.45;100.00;99868.75;6055398;23;20017;-73
2023/12/12 01:48:08;;;;;;;4.18;3.88;;;;;;;6.86;100.00;100116.91;6059128;23;20019;-73
2023/12/12 01:50:35;;;;;;;4.25;3.90;;;;;;;7.19;100.00;100166.66;6070071;23;20041;-72
2023/12/12 01:53:05;;;;;;;3.92;3.72;;;;;;;7.15;100.00;100172.09;6053151;23;20022;-74
2023/12/12 01:55:37;;;;;;;4.55;4.25;;;;;;;7.06;100.00;100172.53;6053703;23;20014;-74
2023/12/12 01:58:10;;;;;;;5.25;4.95;;;;;;;6.79;100.00;100136.34;6032298;23;20418;-74
2023/12/12 02:00:40;;;;;;;8.15;3.72;;;;;;;6.92;100.00;100186.22;6081383;23;20028;-73
2023/12/12 02:03:14;;;;;;;6.35;4.43;;;;;;;6.62;100.00;100125.84;6054792;23;20099;-74
2023/12/12 02:05:46;;;;;;;4.00;3.80;;;;;;;6.83;100.00;100170.97;6061636;23;20532;-73
2023/12/12 02:08:17;;;;;;;10.68;4.28;;;;;;;6.82;100.00;100164.91;6048290;23;20042;-75
2023/12/12 02:10:46;;;;;;;4.78;4.53;;;;;;;6.87;100.00;100185.56;6033235;23;20201;-75
2023/12/12 02:13:19;;;;;;;5.63;4.63;;;;;;;6.93;100.00;100201.75;6037449;23;20034;-74
2023/12/12 02:15:48;;;;;;;5.47;4.53;;;;;;;6.91;100.00;100200.16;6083007;23;20033;-74
2023/12/12 02:18:17;;;;;;;4.40;4.10;;;;;;;6.70;100.00;100173.28;6054861;23;20094;-76
2023/12/12 02:20:47;;;;;;;4.35;4.05;;;;;;;6.80;100.00;100192.81;6075716;23;20030;-73
2023/12/12 02:23:17;;;;;;;4.90;4.63;;;;;;;6.74;100.00;100196.53;6053695;23;20022;-74
2023/12/12 02:25:44;;;;;;;6.28;4.55;;;;;;;6.66;100.00;100197.81;6052984;23;20664;-73
2023/12/12 02:28:15;;;;;;;5.03;4.55;;;;;;;6.58;100.00;100211.16;6055283;23;20078;-76
2023/12/12 02:30:42;;;;;;;4.32;4.13;;;;;;;6.55;100.00;100206.06;6081790;23;20134;-74
2023/12/12 02:33:38;;;;;;;4.53;4.22;;;;;;;6.52;100.00;100211.44;6055873;23;20146;-76
2023/12/12 02:36:22;;;;;;;;;;;;;;;;;;;;;
2023/12/12 02:39:42;;;;;;;10.82;5.93;;;;;;;6.51;100.00;100221.00;6059227;23;20022;-72
2023/12/12 02:42:52;;;;;;;;;;;;;;;;;;;;;
2023/12/12 02:45:38;;;;;;;7.00;6.43;;;;;;;6.39;100.00;100235.44;6050758;23;20022;-74
2023/12/12 02:48:23;;;;;;;14.63;5.68;;;;;;;6.34;100.00;100229.53;6081655;23;20025;-75
2023/12/12 02:51:15;;;;;;;3.60;3.50;;;;;;;4.47;100.00;99930.06;6056780;23;20029;-75
2023/12/12 02:53:44;;;;;;;6.28;4.68;;;;;;;2.86;100.00;99675.84;6081418;23;20812;-76
2023/12/12 02:56:30;;;;;;;6.18;5.05;;;;;;;5.47;100.00;100105.50;6026114;23;20605;-73
2023/12/12 02:59:30;;;;;;;13.82;4.53;;;;;;;5.86;100.00;100191.56;6085260;23;20202;-73
2023/12/12 03:02:25;;;;;;;4.35;4.15;;;;;;;6.17;100.00;100237.22;6037338;23;20165;-74
2023/12/12 03:05:35;;;;;;;4.90;4.60;;;;;;;6.14;100.00;100250.38;6057120;23;20116;-74
2023/12/12 03:08:13;;;;;;;3.92;3.63;;;;;;;6.10;100.00;100262.69;6018103;23;20022;-74
2023/12/12 03:10:42;;;;;;;4.13;3.92;;;;;;;6.02;100.00;100256.09;6083107;23;20381;-74
2023/12/12 03:13:09;;;;;;;4.35;4.03;;;;;;;4.75;100.00;100049.38;6047700;23;20456;-74
2023/12/12 03:15:36;;;;;;;3.55;3.45;;;;;;;5.79;100.00;100218.75;6054769;23;20188;-72
2023/12/12 03:18:03;;;;;;;4.68;4.15;;;;;;;5.91;100.00;100244.31;6050109;23;20034;-75
2023/12/12 03:20:32;;;;;;;4.70;4.38;;;;;;;5.80;100.00;100233.47;6076675;23;20048;-74
2023/12/12 03:22:58;;;;;;;3.90;3.70;;;;;;;4.45;100.00;100020.22;6055738;23;20030;-75
2023/12/12 03:25:25;;;;;;;5.68;5.38;;;;;;;5.40;100.00;100185.59;6076322;23;20040;-75
2023/12/12 03:27:51;;;;;;;5.13;3.90;;;;;;;5.72;100.00;100241.59;6058391;23;20030;-75
2023/12/12 03:30:18;;;;;;;4.30;3.90;;;;;;;5.72;100.00;100245.97;6074369;23;20036;-72
2023/12/12 03:32:44;;;;;;;5.97;5.55;;;;;;;5.70;100.00;100240.81;6054103;23;20034;-74
2023/12/12 03:35:11;;;;;;;4.40;4.13;;;;;;;5.65;100.00;100244.47;6071347;23;20050;-74
2023/12/12 03:37:37;;;;;;;8.45;4.47;;;;;;;5.67;100.00;100240.91;6047215;23;20018;-73
2023/12/12 03:40:06;;;;;;;4.00;3.80;;;;;;;5.52;100.00;100218.09;6078103;23;20499;-75
2023/12/12 03:42:32;;;;;;;4.50;4.20;;;;;;;5.40;100.00;100214.22;6042510;23;20039;-72
2023/12/12 03:44:59;;;;;;;3.30;3.20;;;;;;;4.41;100.00;100066.28;6076233;23;20057;-75
2023/12/12 03:47:25;;;;;;;5.35;5.13;;;;;;;5.39;100.00;100239.41;6041794;23;20106;-75
2023/12/12 03:49:52;;;;;;;4.13;3.92;;;;;;;4.84;100.00;100154.78;6080178;23;20339;-74
2023/12/12 03:52:18;;;;;;;3.42;3.33;;;;;;;4.93;100.00;100176.09;6033423;23;20046;-74
2023/12/12 03:54:45;;;;;;;9.05;4.00;;;;;;;5.34;100.00;100233.50;6075027;23;20862;-73
2023/12/12 03:57:12;;;;;;;7.05;6.45;;;;;;;5.09;100.00;100188.50;6044836;23;20034;-73
2023/12/12 03:59:42;;;;;;;8.10;4.90;;;;;;;4.28;100.00;100037.28;6051836;23;20037;-73
2023/12/12 04:02:09;;;;;;;4.30;3.97;;;;;;;4.27;100.00;100034.75;6048554;23;20398;-74
2023/12/12 04:04:35;;;;;;;4.10;3.90;;;;;;;3.85;100.00;99945.41;6075676;23;20026;-74
2023/12/12 04:07:03;;;;;;;4.47;4.18;;;;;;;5.75;100.00;100245.81;6040582;23;20026;-73
2023/12/12 04:09:29;;;;;;;4.32;4.13;;;;;;;5.84;100.00;100249.84;6075262;23;20030;-72
2023/12/12 04:11:56;;;;;;;15.98;4.00;;;;;;;5.83;100.00;100219.47;6046975;23;20018;-76
2023/12/12 04:14:23;;;;;;;10.13;3.70;;;;;;;6.02;100.00;100232.66;6076847;23;20030;-73
2023/12/12 04:16:49;;;;;;;4.10;3.90;;;;;;;6.09;100.00;100239.28;6050691;23;20036;-73
2023/12/12 04:19:16;;;;;;;6.82;6.05;;;;;;;5.49;100.00;100153.13;6068941;23;20038;-75
2023/12/12 04:21:43;;;;;;;3.90;3.70;;;;;;;5.73;100.00;100174.72;6053060;23;20019;-76
2023/12/12 04:24:10;;;;;;;4.53;4.22;;;;;;;4.69;100.00;99985.53;6079840;23;20186;-76
2023/12/12 04:26:37;;;;;;;4.65;4.38;;;;;;;5.76;100.00;100148.59;6053917;23;20072;-74
2023/12/12 04:29:06;;;;;;;4.53;3.72;;;;;;;5.78;100.00;100155.41;6080212;23;20022;-75
2023/12/12 04:31:51;;;;;;;3.90;3.70;;;;;;;6.11;100.00;100211.41;6043934;23;20674;-75
2023/12/12 04:34:18;;;;;;;10.88;4.47;;;;;;;6.11;100.00;100207.03;6075577;23;20041;-73
2023/12/12 04:36:44;;;;;;;4.28;4.07;;;;;;;6.23;100.00;100212.66;6050799;23;20094;-75
2023/12/12 04:39:15;;;;;;;6.95;4.60;;;;;;;6.26;100.00;100212.56;6081216;23;20014;-74
2023/12/12 04:41:43;;;;;;;4.47;4.10;;;;;;;6.26;100.00;100216.00;6031980;23;20026;-76
2023/12/12 04:44:10;;;;;;;9.02;4.30;;;;;;;6.24;100.00;100217.81;6060525;23;20037;-74
2023/12/12 04:46:37;;;;;;;4.00;3.70;;;;;;;5.90;100.00;100161.88;6041986;23;20076;-74
2023/12/12 04:49:07;;;;;;;3.67;3.55;;;;;;;5.49;100.00;100072.47;6067825;23;20029;-73
2023/12/12 04:51:40;;;;;;;4.95;4.63;;;;;;;5.07;100.00;99997.88;6056676;23;20219;-75
2023/12/12 04:54:07;;;;;;;3.50;3.40;;;;;;;6.42;100.00;100220.56;6081976;23;20516;-73
2023/12/12 04:56:33;;;;;;;3.95;3.72;;;;;;;6.34;100.00;100203.47;6053999;23;20069;-73
2023/12/12 04:59:00;;;;;;;4.00;3.70;;;;;;;6.50;100.00;100215.88;6080088;23;20031;-74
2023/12/12 05:01:27;;;;;;;6.60;5.70;;;;;;;6.13;100.00;100141.84;6020324;23;20327;-75
2023/12/12 05:03:53;;;;;;;4.85;4.30;;;;;;;6.51;100.00;100212.34;6085112;23;20476;-75
2023/12/12 05:06:20;;;;;;;3.75;3.55;;;;;;;6.46;100.00;100206.50;6051074;23;20185;-75
2023/12/12 05:08:47;;;;;;;5.40;4.18;;;;;;;6.44;100.00;100208.31;6083267;23;20033;-74
2023/12/12 05:11:14;;;;;;;5.32;4.93;;;;;;;6.42;100.00;100207.53;6024055;23;20055;-75
2023/12/12 05:13:41;;;;;;;3.55;3.45;;;;;;;6.05;100.00;100147.38;6079671;23;20029;-75
2023/12/12 05:16:08;;;;;;;4.47;4.18;;;;;;;6.31;100.00;100198.38;6053148;23;20094;-74
2023/12/12 05:18:54;;;;;;;3.90;3.75;;;;;;;6.23;100.00;100184.84;6078927;23;20460;-76
2023/12/12 05:21:30;;;;;;;11.93;7.05;;;;;;;6.18;100.00;100187.66;6028718;23;20167;-75
2023/12/12 05:23:59;;;;;;;4.13;3.92;;;;;;;6.12;100.00;100181.88;6079304;23;20036;-73
2023/12/12 05:26:27;;;;;;;4.38;4.10;;;;;;;6.07;100.00;100171.63;6057946;23;20188;-74
2023/12/12 05:28:53;;;;;;;5.15;4.45;;;;;;;6.02;100.00;100154.50;6079305;23;20036;-75
2023/12/12 05:31:20;;;;;;;6.05;5.65;;;;;;;6.26;100.00;100187.34;6041888;23;20081;-74
2023/12/12 05:33:46;;;;;;;4.00;3.80;;;;;;;6.30;100.00;100177.63;6081641;23;20437;-73
2023/12/12 05:36:13;;;;;;;6.18;4.28;;;;;;;6.41;100.00;100184.97;6049347;23;20513;-74
2023/12/12 05:38:40;;;;;;;4.18;3.47;;;;;;;6.47;100.00;100184.72;6076190;23;20529;-73
2023/12/12 05:41:06;;;;;;;5.18;4.63;;;;;;;5.87;100.00;100068.25;6051796;23;20847;-73
2023/12/12 05:43:33;;;;;;;8.00;5.20;;;;;;;6.58;100.00;100169.47;6076930;23;20029;-77
2023/12/12 05:46:00;;;;;;;5.20;4.72;;;;;;;5.99;100.00;100064.31;6034686;23;20078;-73
2023/12/12 05:48:26;;;;;;;4.68;4.38;;;;;;;6.62;100.00;100163.19;6074938;23;20138;-74
2023/12/12 05:50:53;;;;;;;4.65;4.30;;;;;;;6.04;100.00;100064.13;6053539;23;20088;-74
2023/12/12 05:53:20;;;;;;;5.90;5.57;;;;;;;6.68;100.00;100162.91;6071622;23;20026;-74
2023/12/12 05:55:46;;;;;;;4.80;4.50;;;;;;;6.69;100.00;100153.31;6049026;23;20045;-74
2023/12/12 05:58:13;;;;;;;6.00;4.40;;;;;;;6.72;100.00;100155.81;6083406;23;20071;-74
2023/12/12 06:00:39;;;;;;;7.80;4.90;;;;;;;6.74;100.00;100151.38;6022954;23;20486;-75
2023/12/12 06:03:06;;;;;;;4.80;4.40;;;;;;;6.75;100.00;100150.44;6080144;23;20026;-75
2023/12/12 06:05:32;;;;;;;5.38;4.90;;;;;;;5.95;100.00;100018.47;6048170;23;20026;-74
2023/12/12 06:07:59;;;;;;;3.92;3.72;;;;;;;6.57;100.00;100129.50;6076893;23;20097;-74
2023/12/12 06:10:26;;;;;;;7.32;5.38;;;;;;;6.23;100.00;100054.56;6053605;23;20058;-73
2023/12/12 06:12:54;;;;;;;8.88;4.70;;;;;;;6.82;100.00;100151.88;6079893;23;20034;-73
2023/12/12 06:15:20;;;;;;;5.72;5.35;;;;;;;6.85;100.00;100143.88;6054546;23;20022;-74
2023/12/12 06:17:47;;;;;;;12.77;4.38;;;;;;;6.87;100.00;100133.38;6073545;23;20088;-73
2023/12/12 06:20:14;;;;;;;5.20;4.90;;;;;;;6.41;100.00;100052.88;6029384;23;20666;-73
2023/12/12 06:22:41;;;;;;;6.55;5.95;;;;;;;6.59;100.00;100061.63;6056731;23;20030;-74
2023/12/12 06:25:08;;;;;;;5.78;4.25;;;;;;;7.00;100.00;100121.47;6052580;23;20006;-74
2023/12/12 06:27:37;;;;;;;3.80;3.60;;;;;;;7.01;100.00;100120.53;6055890;23;20026;-73
2023/12/12 06:30:03;;;;;;;4.90;4.60;;;;;;;7.01;100.00;100107.50;6048915;23;20041;-74
2023/12/12 06:32:30;;;;;;;4.70;4.43;;;;;;;6.91;100.00;100082.78;6078611;23;21328;-74
2023/12/12 06:34:57;;;;;;;4.45;4.15;;;;;;;7.04;100.00;100094.31;6049371;23;20026;-75
2023/12/12 06:37:23;;;;;;;8.77;5.22;;;;;;;7.06;100.00;100091.66;6070515;23;20049;-72
2023/12/12 06:39:51;;;;;;;4.00;3.80;;;;;;;6.34;100.00;99968.09;6051239;23;20226;-75
2023/12/12 06:42:18;;;;;;;3.90;3.70;;;;;;;6.40;100.00;99967.81;6071991;23;20099;-73
2023/12/12 06:44:44;;;;;;;4.30;4.00;;;;;;;6.96;100.00;100044.28;6026520;23;20018;-73
2023/12/12 06:47:10;;;;;;;4.32;4.10;;;;;;;6.90;100.00;100061.06;6079013;23;20433;-74
2023/12/12 06:49:37;;;;;;;4.30;4.10;;;;;;;6.77;100.00;100005.19;6045569;23;20096;-73
2023/12/12 06:52:04;;;;;;;4.85;4.45;;;;;;;6.63;100.00;99978.91;6078320;23;20029;-72
2023/12/12 06:54:30;;;;;;;3.85;3.70;;;;;;;6.70;100.00;99986.38;6044650;23;20034;-75
2023/12/12 06:56:56;;;;;;;5.05;4.45;;;;;;;7.05;100.00;100033.38;6079106;23;20089;-72
2023/12/12 06:59:25;;;;;;;5.63;5.03;;;;;;;6.58;100.00;99960.91;6022412;23;20026;-73
2023/12/12 07:01:52;;;;;;;4.70;3.90;;;;;;;6.48;100.00;99942.22;6076558;23;20480;-72
2023/12/12 07:04:18;;;;;;;5.60;4.55;;;;;;;7.07;100.00;100036.75;6051072;23;20429;-74
2023/12/12 07:06:45;;;;;;;4.03;3.78;;;;;;;7.08;100.00;100037.63;6044630;23;20022;-73
2023/12/12 07:09:12;;;;;;;6.78;4.85;;;;;;;7.08;100.00;100035.03;6075806;23;20113;-74
2023/12/12 07:11:39;;;;;;;6.47;4.38;;;;;;;6.37;100.00;99913.22;6048416;23;20022;-71
2023/12/12 07:14:05;;;;;;;3.90;3.70;;;;;;;5.71;100.00;99806.88;6078833;23;20041;-72
2023/12/12 07:16:32;;;;;;;5.47;4.43;;;;;;;7.15;100.00;100023.34;6046899;23;20033;-73
2023/12/12 07:18:58;;;;;;;9.18;5.03;;;;;;;7.18;100.00;100015.38;6074710;23;20327;-72
2023/12/12 07:21:25;;;;;;;6.18;5.80;;;;;;;7.20;100.00;100013.56;6049413;23;20012;-73
2023/12/12 07:23:53;;;;;;;4.63;4.25;;;;;;;6.94;100.00;99970.47;6070536;23;20366;-73
2023/12/12 07:26:22;;;;;;;3.85;3.60;;;;;;;7.27;100.00;100007.09;6050769;23;19998;-72
2023/12/12 07:28:49;;;;;;;4.30;4.10;;;;;;;7.28;100.00;100006.19;6079018;23;20077;-72
2023/12/12 07:31:16;;;;;;;9.70;6.32;;;;;;;6.98;100.00;99951.16;6040189;23;20011;-74
2023/12/12 07:33:43;;;;;;;4.13;3.92;;;;;;;7.33;100.00;99996.34;6076189;23;20483;-72
2023/12/12 07:36:09;;;;;;;4.40;4.20;;;;;;;7.06;100.00;99937.72;6046222;23;20354;-74
2023/12/12 07:38:35;;;;;;;4.50;4.20;;;;;;;7.45;100.00;99984.44;6080699;23;20058;-73
2023/12/12 07:41:02;;;;;;;4.13;3.92;;;;;;;7.48;100.00;99980.84;6048341;23;20199;-72
2023/12/12 07:43:28;;;;;;;5.65;5.07;;;;;;;7.44;100.00;99969.72;6075711;23;20276;-72
2023/12/12 07:45:55;;;;;;;4.63;4.43;;;;;;;7.47;100.00;99958.25;6056268;23;20019;-72
2023/12/12 07:48:21;;;;;;;6.20;5.10;;;;;;;7.57;100.00;99955.09;6079455;23;20029;-72
2023/12/12 07:50:48;;;;;;;4.57;4.35;;;;;;;7.38;100.00;99916.06;6051822;23;20030;-72
2023/12/12 07:53:15;;;;;;;7.07;5.25;;;;;;;6.43;100.00;99742.69;6083056;23;20417;-72
2023/12/12 07:55:41;;;;;;;4.68;4.38;;;;;;;7.69;100.00;99939.72;6052675;23;20030;-72
2023/12/12 07:58:08;;;;;;;4.63;4.43;;;;;;;7.71;100.00;99930.88;6083072;23;20046;-73
2023/12/12 08:00:34;;;;;;;5.13;4.60;;;;;;;7.43;100.00;99884.47;6050694;23;20050;-71
2023/12/12 08:03:01;;;;;;;5.15;4.75;;;;;;;7.00;100.00;99795.38;6076844;23;20425;-73
2023/12/12 08:05:27;;;;;;;6.35;6.05;;;;;;;7.80;100.00;99913.88;6022261;23;20030;-71
2023/12/12 08:07:54;;;;;;;6.32;5.72;;;;;;;7.83;100.00;99905.88;6056988;23;20092;-71
2023/12/12 08:10:20;;;;;;;4.60;4.30;;;;;;;7.88;100.00;99903.88;6047508;23;20522;-73
2023/12/12 08:12:48;;;;;;;16.90;5.25;;;;;;;7.92;100.00;99896.72;6076351;23;20225;-71
2023/12/12 08:15:15;;;;;;;5.82;5.35;;;;;;;7.95;100.00;99892.16;6051040;23;20034;-71
2023/12/12 08:17:41;;;;;;;13.45;5.40;;;;;;;7.97;100.00;99874.63;6069079;23;20092;-71
2023/12/12 08:20:08;;;;;;;4.68;4.28;;;;;;;7.92;100.00;99853.13;6040869;23;20117;-71
2023/12/12 08:22:35;;;;;;;14.35;5.32;;;;;;;7.96;100.00;99852.03;6053936;23;20194;-71
2023/12/12 08:25:02;;;;;;;5.15;4.72;;;;;;;8.06;100.00;99859.34;6035705;23;20015;-72
2023/12/12 08:27:28;;;;;;;5.95;5.47;;;;;;;8.07;100.00;99854.06;6042657;23;20343;-71
2023/12/12 08:29:55;;;;;;;13.40;4.80;;;;;;;8.01;100.00;99830.03;6028905;23;20076;-71
2023/12/12 08:32:24;;;;;;;10.05;4.93;;;;;;;8.09;100.00;99833.91;6074671;23;20027;-71
2023/12/12 08:34:53;;;;;;;7.65;4.70;;;;;;;8.19;100.00;99837.69;6049400;23;20026;-71
2023/12/12 08:37:20;;;;;;;6.13;5.75;;;;;;;8.27;100.00;99834.66;6064744;23;20025;-71
2023/12/12 08:39:46;;;;;;;6.22;5.80;;;;;;;7.75;100.00;99748.72;6051811;23;20098;-72
2023/12/12 08:42:14;;;;;;;8.27;4.35;;;;;;;7.63;100.00;99720.69;6072908;23;20227;-73
2023/12/12 08:44:41;;;;;;;7.75;4.78;;;;;;;7.74;100.00;99731.41;6054394;23;20034;-71
2023/12/12 08:47:07;;;;;;;5.15;4.80;;;;;;;8.42;100.00;99813.81;6079984;23;20109;-74
2023/12/12 08:49:37;;;;;;;4.53;4.22;;;;;;;8.47;100.00;99806.56;6047499;23;20021;-71
2023/12/12 08:52:06;;;;;;;4.85;4.45;;;;;;;8.55;100.00;99791.25;6079385;23;20375;-71
2023/12/12 08:54:36;;;;;;;10.75;4.63;;;;;;;8.55;100.00;99772.97;6046764;23;20033;-72
2023/12/12 08:57:03;;;;;;;6.00;4.63;;;;;;;8.38;100.00;99724.25;6081085;23;20060;-73
2023/12/12 08:59:30;;;;;;;5.30;4.85;;;;;;;8.58;100.00;99741.41;6044847;23;20159;-73
2023/12/12 09:01:56;;;;;;;13.13;4.72;;;;;;;8.14;100.00;99656.78;6075489;23;20629;-74
2023/12/12 09:04:23;;;;;;;4.88;4.57;;;;;;;8.18;100.00;99647.84;6049726;23;20058;-75
2023/12/12 09:06:49;;;;;;;4.80;4.50;;;;;;;8.70;100.00;99718.88;6064739;23;20456;-70
2023/12/12 09:09:16;;;;;;;5.78;5.32;;;;;;;8.08;100.00;99604.91;6049955;23;21595;-75
2023/12/12 09:11:46;;;;;;;17.33;4.63;;;;;;;8.57;100.00;99667.31;6073690;23;20022;-78
2023/12/12 09:14:13;;;;;;;6.68;5.25;;;;;;;7.63;100.00;99528.31;6025584;23;20110;-78
2023/12/12 09:16:39;;;;;;;5.22;4.82;;;;;;;7.99;100.00;99582.75;6084181;23;20439;-75
2023/12/12 09:19:06;;;;;;;5.18;4.55;;;;;;;8.51;100.00;99664.25;6045824;23;20054;-76
2023/12/12 09:21:34;;;;;;;8.07;6.63;;;;;;;8.12;100.00;99582.03;6066192;23;20211;-76
2023/12/12 09:24:00;;;;;;;5.25;4.85;;;;;;;8.67;100.00;99654.53;6048382;23;20208;-75
2023/12/12 09:26:27;;;;;;;4.75;4.20;;;;;;;7.68;100.00;99473.22;6078586;23;20037;-77
2023/12/12 09:28:53;;;;;;;4.25;4.05;;;;;;;8.84;100.00;99623.88;6053874;23;20456;-76
2023/12/12 09:31:27;;;;;;;6.38;5.95;;;;;;;7.51;100.00;99388.06;6052015;23;20077;-75
2023/12/12 09:33:54;;;;;;;5.22;4.90;;;;;;;8.60;100.00;99564.31;6049832;23;20449;-73
2023/12/12 09:36:21;;;;;;;4.47;4.20;;;;;;;8.69;100.00;99570.75;6077396;23;20487;-74
2023/12/12 09:38:47;;;;;;;5.78;5.15;;;;;;;8.48;100.00;99554.59;6047426;23;20028;-75
2023/12/12 09:41:23;;;;;;;5.65;5.13;;;;;;;8.62;100.00;99591.22;6069361;23;20034;-75
2023/12/12 09:43:51;;;;;;;6.25;4.28;;;;;;;7.95;100.00;99471.53;6045001;23;20121;-75
2023/12/12 09:46:19;;;;;;;4.80;4.55;;;;;;;8.10;100.00;99482.00;6082351;23;20004;-76
2023/12/12 09:48:53;;;;;;;6.47;4.82;;;;;;;8.61;100.00;99557.31;6048556;23;20410;-76
2023/12/12 09:51:21;;;;;;;8.40;5.32;;;;;;;8.88;100.00;99600.06;6052031;23;20454;-74
2023/12/12 09:53:48;;;;;;;7.65;6.25;;;;;;;9.04;100.00;99612.16;6020927;23;20026;-73
2023/12/12 09:56:18;;;;;;;4.25;4.00;;;;;;;9.16;100.00;99601.75;6068253;23;20025;-73
2023/12/12 09:58:47;;;;;;;6.47;5.93;;;;;;;7.94;100.00;99396.72;6049403;23;20246;-72
2023/12/12 10:01:15;;;;;;;6.00;5.47;;;;;;;8.74;100.00;99483.22;6056142;23;20021;-73
2023/12/12 10:03:43;;;;;;;9.30;4.72;;;;;;;8.83;100.00;99486.16;6047610;23;20335;-72
2023/12/12 10:06:49;;;;;;;21.63;20.48;;;;;;;9.35;100.00;99553.44;6012920;23;20406;-74
2023/12/12 10:09:16;;;;;;;5.53;5.13;;;;;;;9.29;100.00;99504.09;6050805;23;20197;-72
2023/12/12 10:11:42;;;;;;;4.72;4.50;;;;;;;9.20;100.00;99450.59;6075706;23;20017;-74
2023/12/12 10:14:10;;;;;;;4.60;4.35;;;;;;;9.38;100.00;99454.59;6052192;23;20102;-75
2023/12/12 10:16:37;;;;;;;5.55;5.15;;;;;;;9.01;100.00;99376.84;6061691;23;20609;-75
2023/12/12 10:19:04;;;;;;;10.38;5.25;;;;;;;9.39;100.00;99422.22;6047333;23;20119;-76
2023/12/12 10:21:30;;;;;;;4.57;4.38;;;;;;;9.72;100.00;99457.53;6082324;23;20026;-75
2023/12/12 10:23:58;;;;;;;5.18;4.80;;;;;;;8.89;100.00;99260.78;6050064;23;20563;-74
2023/12/12 10:26:29;;;;;;;6.75;4.80;;;;;;;9.90;100.00;99403.03;6078519;23;20118;-74
2023/12/12 10:28:57;;;;;;;7.50;4.50;;;;;;;9.90;100.00;99382.06;6026890;23;21085;-74
2023/12/12 10:31:24;;;;;;;6.45;6.13;;;;;;;9.55;100.00;99305.94;6050500;23;20041;-76
2023/12/12 10:33:53;;;;;;;6.72;6.05;;;;;;;9.92;100.00;99360.97;6025494;23;20288;-74
2023/12/12 10:36:19;;;;;;;4.63;4.32;;;;;;;10.01;100.00;99359.50;6069656;23;20010;-75
2023/12/12 10:38:46;;;;;;;6.00;5.43;;;;;;;9.88;100.00;99310.59;6047233;23;20026;-75
2023/12/12 10:41:16;;;;;;;5.55;5.15;;;;;;;9.90;100.00;99311.31;6077563;23;20010;-73
2023/12/12 10:43:44;;;;;;;4.28;4.03;;;;;;;9.66;100.00;99306.03;6054005;23;20080;-73
2023/12/12 10:46:16;;;;;;;4.72;4.32;;;;;;;9.87;100.00;99342.97;6082767;23;20436;-75
2023/12/12 10:48:47;;;;;;;5.10;4.80;;;;;;;9.98;100.00;99373.63;6051234;23;20037;-74
2023/12/12 10:51:17;;;;;;;6.07;5.45;;;;;;;9.49;100.00;99307.19;6070409;23;20202;-73
2023/12/12 10:53:45;;;;;;;5.22;4.93;;;;;;;9.91;100.00;99386.34;6042296;23;20046;-73
2023/12/12 10:56:13;;;;;;;5.53;5.03;;;;;;;9.15;100.00;99261.59;6060437;23;20054;-73
2023/12/12 10:58:42;;;;;;;11.00;5.43;;;;;;;9.76;100.00;99338.50;6040355;23;20306;-74
2023/12/12 11:01:10;;;;;;;7.25;5.00;;;;;;;10.01;100.00;99378.66;6055433;23;20032;-76
2023/12/12 11:03:37;;;;;;;4.63;4.22;;;;;;;9.57;100.00;99328.44;6050805;23;20096;-75
2023/12/12 11:06:04;;;;;;;5.00;4.60;;;;;;;9.75;100.00;99375.28;6073524;23;20018;-74
2023/12/12 11:08:32;;;;;;;5.22;4.93;;;;;;;8.68;100.00;99200.28;6051500;23;20052;-74
2023/12/12 11:11:01;;;;;;;5.00;4.70;;;;;;;9.84;100.00;99384.25;6079322;23;20020;-75
2023/12/12 11:13:32;;;;;;;7.28;6.78;;;;;;;9.65;100.00;99382.94;6047240;23;20100;-74
2023/12/12 11:16:01;;;;;;;5.15;4.75;;;;;;;9.70;100.00;99433.22;6082248;23;20466;-74
2023/12/12 11:18:28;;;;;;;5.32;4.93;;;;;;;9.62;100.00;99485.28;6048886;23;20046;-74
2023/12/12 11:20:55;;;;;;;4.70;4.40;;;;;;;9.45;100.00;99515.22;6081864;23;20041;-75
2023/12/12 11:23:53;;;;;;;5.47;5.20;;;;;;;9.63;100.00;99569.97;6051555;23;20031;-74
2023/12/12 11:26:24;;;;;;;7.07;4.97;;;;;;;9.64;100.00;99598.69;6072571;23;20081;-73
2023/12/12 11:28:53;;;;;;;4.28;4.07;;;;;;;9.60;100.00;99626.00;6054810;23;20036;-74
2023/12/12 11:31:27;;;;;;;7.20;6.75;;;;;;;9.66;100.00;99645.72;6057787;23;20270;-74
2023/12/12 11:34:07;;;;;;;6.45;5.95;;;;;;;9.56;100.00;99635.84;6048733;23;20494;-74
2023/12/12 11:36:51;;;;;;;7.13;4.95;;;;;;;9.60;100.00;99652.19;6073095;23;20018;-75
2023/12/12 11:39:22;;;;;;;6.28;5.75;;;;;;;8.92;100.00;99562.28;6046744;23;20027;-73
2023/12/12 11:41:51;;;;;;;6.32;5.72;;;;;;;9.37;100.00;99665.00;6047326;23;20184;-75